sensor_id;sensor_type;location;lat;lon;timestamp;temperature;humidity
51486;DHT22;37565;51.352;6.412;2023-02-28T16:45:41;17.80;75.30
51486;DHT22;37565;51.352;6.412;2023-02-28T16:48:13;17.90;75.90
51486;DHT22;37565;51.352;6.412;2023-02-28T16:50:42;18.00;75.90
51486;DHT22;37565;51.352;6.412;2023-02-28T16:53:10;18.10;76.00
51486;DHT22;37565;51.352;6.412;2023-02-28T16:55:40;18.20;76.90
51486;DHT22;37565;51.352;6.412;2023-02-28T16:58:13;18.20;76.30
51486;DHT22;37565;51.352;6.412;2023-02-28T17:00:43;18.20;76.40
51486;DHT22;37565;51.352;6.412;2023-02-28T17:03:21;18.20;76.80
51486;DHT22;37565;51.352;6.412;2023-02-28T17:05:59;18.20;76.80
51486;DHT22;37565;51.352;6.412;2023-02-28T17:08:26;18.20;77.20
51486;DHT22;37565;51.352;6.412;2023-02-28T17:10:55;18.20;77.00
51486;DHT22;37565;51.352;6.412;2023-02-28T17:13:23;18.20;77.20
51486;DHT22;37565;51.352;6.412;2023-02-28T17:15:53;18.20;77.40
51486;DHT22;37565;51.352;6.412;2023-02-28T17:18:22;18.20;77.40
51486;DHT22;37565;51.352;6.412;2023-02-28T17:20:50;18.20;77.40
51486;DHT22;37565;51.352;6.412;2023-02-28T17:23:18;18.20;78.20
51486;DHT22;37565;51.352;6.412;2023-02-28T17:25:46;18.20;77.50
51486;DHT22;37565;51.352;6.412;2023-02-28T17:28:23;18.20;77.40
51486;DHT22;37565;51.352;6.412;2023-02-28T17:30:52;18.20;77.20
51486;DHT22;37565;51.352;6.412;2023-02-28T17:33:20;18.20;77.40
51486;DHT22;37565;51.352;6.412;2023-02-28T17:35:48;18.20;77.30
51486;DHT22;37565;51.352;6.412;2023-02-28T17:38:18;18.20;77.30
51486;DHT22;37565;51.352;6.412;2023-02-28T17:40:48;18.20;77.10
51486;DHT22;37565;51.352;6.412;2023-02-28T17:43:16;18.20;77.10
51486;DHT22;37565;51.352;6.412;2023-02-28T17:45:44;18.20;77.40
51486;DHT22;37565;51.352;6.412;2023-02-28T17:48:14;18.10;77.00
51486;DHT22;37565;51.352;6.412;2023-02-28T17:50:41;18.00;76.90
51486;DHT22;37565;51.352;6.412;2023-02-28T17:53:10;18.10;76.80
51486;DHT22;37565;51.352;6.412;2023-02-28T17:55:37;18.10;77.00
51486;DHT22;37565;51.352;6.412;2023-02-28T17:58:10;18.10;76.80
51486;DHT22;37565;51.352;6.412;2023-02-28T18:00:39;18.10;77.50
51486;DHT22;37565;51.352;6.412;2023-02-28T18:03:06;18.10;77.50
51486;DHT22;37565;51.352;6.412;2023-02-28T18:05:37;18.10;77.50
51486;DHT22;37565;51.352;6.412;2023-02-28T18:08:05;18.10;77.70
51486;DHT22;37565;51.352;6.412;2023-02-28T18:10:34;18.20;77.70
51486;DHT22;37565;51.352;6.412;2023-02-28T18:13:02;18.10;77.70
51486;DHT22;37565;51.352;6.412;2023-02-28T18:15:30;18.10;77.00
51486;DHT22;37565;51.352;6.412;2023-02-28T18:17:58;17.90;77.70
51486;DHT22;37565;51.352;6.412;2023-02-28T18:20:26;17.90;78.10
51486;DHT22;37565;51.352;6.412;2023-02-28T18:22:56;17.90;78.20
51486;DHT22;37565;51.352;6.412;2023-02-28T18:25:24;17.90;78.20
51486;DHT22;37565;51.352;6.412;2023-02-28T18:27:52;18.10;78.50
51486;DHT22;37565;51.352;6.412;2023-02-28T18:30:25;18.30;78.30
51486;DHT22;37565;51.352;6.412;2023-02-28T18:32:54;18.30;78.00
51486;DHT22;37565;51.352;6.412;2023-02-28T18:35:22;18.30;78.40
51486;DHT22;37565;51.352;6.412;2023-02-28T18:38:04;18.40;78.20
51486;DHT22;37565;51.352;6.412;2023-02-28T18:40:32;18.50;78.10
51486;DHT22;37565;51.352;6.412;2023-02-28T18:43:01;18.50;78.10
51486;DHT22;37565;51.352;6.412;2023-02-28T18:45:29;18.40;78.20
51486;DHT22;37565;51.352;6.412;2023-02-28T18:47:57;18.30;78.70
51486;DHT22;37565;51.352;6.412;2023-02-28T18:50:25;18.20;79.30
51486;DHT22;37565;51.352;6.412;2023-02-28T18:52:53;18.20;79.50
51486;DHT22;37565;51.352;6.412;2023-02-28T18:55:24;18.20;79.60
51486;DHT22;37565;51.352;6.412;2023-02-28T18:57:53;18.20;79.50
51486;DHT22;37565;51.352;6.412;2023-02-28T19:00:22;18.30;79.40
51486;DHT22;37565;51.352;6.412;2023-02-28T19:02:51;18.30;79.50
51486;DHT22;37565;51.352;6.412;2023-02-28T19:05:19;18.30;79.50
51486;DHT22;37565;51.352;6.412;2023-02-28T19:07:48;18.40;79.70
51486;DHT22;37565;51.352;6.412;2023-02-28T19:10:16;18.30;79.70
51486;DHT22;37565;51.352;6.412;2023-02-28T19:12:45;18.30;79.90
51486;DHT22;37565;51.352;6.412;2023-02-28T19:15:13;18.30;80.00
51486;DHT22;37565;51.352;6.412;2023-02-28T19:17:41;18.30;80.00
51486;DHT22;37565;51.352;6.412;2023-02-28T19:20:10;18.30;80.20
51486;DHT22;37565;51.352;6.412;2023-02-28T19:22:38;18.30;80.00
51486;DHT22;37565;51.352;6.412;2023-02-28T19:25:07;18.30;80.00
51486;DHT22;37565;51.352;6.412;2023-02-28T19:27:35;18.30;80.10
51486;DHT22;37565;51.352;6.412;2023-02-28T19:30:06;18.30;80.20
51486;DHT22;37565;51.352;6.412;2023-02-28T19:32:35;18.30;80.30
51486;DHT22;37565;51.352;6.412;2023-02-28T19:35:03;18.30;80.30
51486;DHT22;37565;51.352;6.412;2023-02-28T19:37:31;18.30;80.20
51486;DHT22;37565;51.352;6.412;2023-02-28T19:39:59;18.30;80.00
51486;DHT22;37565;51.352;6.412;2023-02-28T19:42:28;18.30;79.70
51486;DHT22;37565;51.352;6.412;2023-02-28T19:44:58;18.40;79.60
51486;DHT22;37565;51.352;6.412;2023-02-28T19:47:28;18.40;79.60
51486;DHT22;37565;51.352;6.412;2023-02-28T19:49:56;18.50;79.40
51486;DHT22;37565;51.352;6.412;2023-02-28T19:52:24;18.50;79.40
51486;DHT22;37565;51.352;6.412;2023-02-28T19:54:52;18.50;79.00
51486;DHT22;37565;51.352;6.412;2023-02-28T19:57:20;18.50;79.20
51486;DHT22;37565;51.352;6.412;2023-02-28T19:59:48;18.50;79.20
51486;DHT22;37565;51.352;6.412;2023-02-28T20:02:18;18.50;79.10
51486;DHT22;37565;51.352;6.412;2023-02-28T20:04:49;18.50;79.30
51486;DHT22;37565;51.352;6.412;2023-02-28T20:07:18;18.50;79.00
51486;DHT22;37565;51.352;6.412;2023-02-28T20:09:46;18.50;79.10
51486;DHT22;37565;51.352;6.412;2023-02-28T20:12:15;18.60;79.10
51486;DHT22;37565;51.352;6.412;2023-02-28T20:14:50;18.60;79.00
51486;DHT22;37565;51.352;6.412;2023-02-28T20:17:18;18.60;79.00
51486;DHT22;37565;51.352;6.412;2023-02-28T20:19:48;18.60;79.00
51486;DHT22;37565;51.352;6.412;2023-02-28T20:22:16;18.60;78.90
51486;DHT22;37565;51.352;6.412;2023-02-28T20:24:45;18.60;78.90
51486;DHT22;37565;51.352;6.412;2023-02-28T20:27:13;18.60;78.80
51486;DHT22;37565;51.352;6.412;2023-02-28T20:29:41;18.60;78.80
51486;DHT22;37565;51.352;6.412;2023-02-28T20:32:09;18.60;78.70
51486;DHT22;37565;51.352;6.412;2023-02-28T20:34:38;18.50;78.80
51486;DHT22;37565;51.352;6.412;2023-02-28T20:37:08;18.50;79.00
51486;DHT22;37565;51.352;6.412;2023-02-28T20:39:36;18.50;78.80
51486;DHT22;37565;51.352;6.412;2023-02-28T20:42:03;18.50;78.80
51486;DHT22;37565;51.352;6.412;2023-02-28T20:44:31;18.50;78.50
51486;DHT22;37565;51.352;6.412;2023-02-28T20:46:59;18.40;78.90
51486;DHT22;37565;51.352;6.412;2023-02-28T20:49:27;18.40;79.00
51486;DHT22;37565;51.352;6.412;2023-02-28T20:51:55;18.40;79.00
51486;DHT22;37565;51.352;6.412;2023-02-28T20:54:25;18.50;78.90
51486;DHT22;37565;51.352;6.412;2023-02-28T20:56:54;18.50;78.70
51486;DHT22;37565;51.352;6.412;2023-02-28T20:59:22;18.50;78.50
51486;DHT22;37565;51.352;6.412;2023-02-28T21:01:50;18.50;78.60
51486;DHT22;37565;51.352;6.412;2023-02-28T21:04:18;18.60;78.40
51486;DHT22;37565;51.352;6.412;2023-02-28T21:06:46;18.60;78.10
51486;DHT22;37565;51.352;6.412;2023-02-28T21:09:14;18.60;78.00
51486;DHT22;37565;51.352;6.412;2023-02-28T21:11:44;18.60;78.00
51486;DHT22;37565;51.352;6.412;2023-02-28T21:14:13;18.60;78.00
51486;DHT22;37565;51.352;6.412;2023-02-28T21:16:42;18.60;77.80
51486;DHT22;37565;51.352;6.412;2023-02-28T21:19:10;18.60;77.80
51486;DHT22;37565;51.352;6.412;2023-02-28T21:21:40;18.60;77.90
51486;DHT22;37565;51.352;6.412;2023-02-28T21:24:10;18.60;78.10
51486;DHT22;37565;51.352;6.412;2023-02-28T21:26:39;18.60;78.00
51486;DHT22;37565;51.352;6.412;2023-02-28T21:29:09;18.60;77.90
51486;DHT22;37565;51.352;6.412;2023-02-28T21:31:38;18.50;77.90
51486;DHT22;37565;51.352;6.412;2023-02-28T21:34:07;18.40;78.70
51486;DHT22;37565;51.352;6.412;2023-02-28T21:36:38;18.40;79.00
51486;DHT22;37565;51.352;6.412;2023-02-28T21:39:08;18.40;79.20
51486;DHT22;37565;51.352;6.412;2023-02-28T21:41:38;18.30;79.40
51486;DHT22;37565;51.352;6.412;2023-02-28T21:44:08;18.30;79.50
51486;DHT22;37565;51.352;6.412;2023-02-28T21:46:36;18.30;79.50
51486;DHT22;37565;51.352;6.412;2023-02-28T21:49:04;18.30;79.80
51486;DHT22;37565;51.352;6.412;2023-02-28T21:51:32;18.30;79.70
51486;DHT22;37565;51.352;6.412;2023-02-28T21:54:00;18.30;79.90
51486;DHT22;37565;51.352;6.412;2023-02-28T21:56:30;18.30;79.50
51486;DHT22;37565;51.352;6.412;2023-02-28T21:58:59;18.20;79.70
51486;DHT22;37565;51.352;6.412;2023-02-28T22:01:30;18.20;79.50
51486;DHT22;37565;51.352;6.412;2023-02-28T22:03:59;18.20;79.40
51486;DHT22;37565;51.352;6.412;2023-02-28T22:06:29;18.20;79.50
51486;DHT22;37565;51.352;6.412;2023-02-28T22:08:59;18.20;79.50
51486;DHT22;37565;51.352;6.412;2023-02-28T22:11:27;18.20;80.00
51486;DHT22;37565;51.352;6.412;2023-02-28T22:13:57;18.20;79.00
51486;DHT22;37565;51.352;6.412;2023-02-28T22:16:28;18.20;79.40
51486;DHT22;37565;51.352;6.412;2023-02-28T22:19:13;18.20;79.30
51486;DHT22;37565;51.352;6.412;2023-02-28T22:21:42;18.20;79.50
51486;DHT22;37565;51.352;6.412;2023-02-28T22:24:11;18.20;79.00
51486;DHT22;37565;51.352;6.412;2023-02-28T22:26:40;18.20;79.30
51486;DHT22;37565;51.352;6.412;2023-02-28T22:29:08;18.20;79.10
51486;DHT22;37565;51.352;6.412;2023-02-28T22:31:38;18.20;79.50
51486;DHT22;37565;51.352;6.412;2023-02-28T22:34:08;18.20;79.20
51486;DHT22;37565;51.352;6.412;2023-02-28T22:36:39;18.20;79.20
51486;DHT22;37565;51.352;6.412;2023-02-28T22:39:07;18.20;79.40
51486;DHT22;37565;51.352;6.412;2023-02-28T22:41:35;18.30;79.10
51486;DHT22;37565;51.352;6.412;2023-02-28T22:44:04;18.30;79.10
51486;DHT22;37565;51.352;6.412;2023-02-28T22:46:33;18.20;79.20
51486;DHT22;37565;51.352;6.412;2023-02-28T22:49:04;18.20;80.00
51486;DHT22;37565;51.352;6.412;2023-02-28T22:51:33;18.10;79.10
51486;DHT22;37565;51.352;6.412;2023-02-28T22:54:01;18.20;79.30
51486;DHT22;37565;51.352;6.412;2023-02-28T22:56:30;18.20;79.20
51486;DHT22;37565;51.352;6.412;2023-02-28T22:58:59;18.20;78.90
51486;DHT22;37565;51.352;6.412;2023-02-28T23:01:32;18.20;78.80
51486;DHT22;37565;51.352;6.412;2023-02-28T23:04:02;18.20;79.00
51486;DHT22;37565;51.352;6.412;2023-02-28T23:06:32;18.20;78.90
51486;DHT22;37565;51.352;6.412;2023-02-28T23:09:02;18.20;79.00
51486;DHT22;37565;51.352;6.412;2023-02-28T23:11:33;18.20;79.00
51486;DHT22;37565;51.352;6.412;2023-02-28T23:14:02;18.20;79.10
51486;DHT22;37565;51.352;6.412;2023-02-28T23:16:33;18.10;79.20
51486;DHT22;37565;51.352;6.412;2023-02-28T23:19:04;18.20;79.20
51486;DHT22;37565;51.352;6.412;2023-02-28T23:21:33;18.30;79.80
51486;DHT22;37565;51.352;6.412;2023-02-28T23:24:01;18.20;79.10
51486;DHT22;37565;51.352;6.412;2023-02-28T23:26:30;18.20;79.00
51486;DHT22;37565;51.352;6.412;2023-02-28T23:28:59;18.20;79.10
51486;DHT22;37565;51.352;6.412;2023-02-28T23:31:27;18.20;79.10
51486;DHT22;37565;51.352;6.412;2023-02-28T23:33:55;18.20;79.00
51486;DHT22;37565;51.352;6.412;2023-02-28T23:36:24;18.20;78.90
51486;DHT22;37565;51.352;6.412;2023-02-28T23:38:52;18.10;78.90
51486;DHT22;37565;51.352;6.412;2023-02-28T23:41:21;18.20;78.80
51486;DHT22;37565;51.352;6.412;2023-02-28T23:43:50;18.20;78.90
51486;DHT22;37565;51.352;6.412;2023-02-28T23:46:19;18.20;79.00
51486;DHT22;37565;51.352;6.412;2023-02-28T23:48:48;18.20;78.90
51486;DHT22;37565;51.352;6.412;2023-02-28T23:51:18;18.20;79.00
51486;DHT22;37565;51.352;6.412;2023-02-28T23:53:49;18.20;79.00
51486;DHT22;37565;51.352;6.412;2023-02-28T23:56:20;18.10;78.80
51486;DHT22;37565;51.352;6.412;2023-02-28T23:58:48;18.20;78.80
